Time;durP1;ratioP1;P1;durP2;ratioP2;P2;SDS_P1;SDS_P2;PMS_P1;PMS_P2;Temp;Humidity;BMP_temperature;BMP_pressure;BME280_temperature;BME280_humidity;BME280_pressure;Samples;Min_cycle;Max_cycle;Signal;HPM_P1;HPM_P2
2022/05/02 00:00:56;;;;;;;24.83;17.47;;;10.20;1.00;;;;;;5116456;28;20254;-72
2022/05/02 00:03:21;;;;;;;22.83;18.13;;;10.20;1.00;;;;;;5116404;28;20168;-72
2022/05/02 00:05:47;;;;;;;24.03;17.73;;;10.20;1.00;;;;;;5116192;28;20533;-72
2022/05/02 00:08:13;;;;;;;21.17;17.73;;;10.10;1.00;;;;;;5116205;28;20172;-72
2022/05/02 00:10:39;;;;;;;22.97;18.13;;;10.10;1.00;;;;;;5116428;28;20295;-71
2022/05/02 00:13:09;;;;;;;22.73;17.73;;;10.00;1.00;;;;;;5116396;28;20254;-71
2022/05/02 00:15:38;;;;;;;25.67;18.37;;;9.90;1.00;;;;;;5115972;28;20171;-70
2022/05/02 00:18:05;;;;;;;23.10;18.33;;;10.00;1.00;;;;;;5116323;28;20167;-72
2022/05/02 00:20:33;;;;;;;29.47;19.13;;;10.00;1.00;;;;;;5116093;28;20167;-71
2022/05/02 00:23:01;;;;;;;25.13;19.77;;;9.90;1.00;;;;;;5115765;28;20555;-72
2022/05/02 00:25:27;;;;;;;27.30;20.27;;;9.90;1.00;;;;;;5116095;28;20638;-72
2022/05/02 00:27:53;;;;;;;26.73;19.10;;;9.80;1.00;;;;;;5116088;28;20251;-72
2022/05/02 00:30:19;;;;;;;28.03;19.97;;;9.80;1.00;;;;;;5115780;28;20271;-72
2022/05/02 00:32:44;;;;;;;29.83;19.37;;;9.70;1.00;;;;;;5097909;28;20182;-72
2022/05/02 00:35:11;;;;;;;26.37;19.77;;;9.70;1.00;;;;;;5116025;28;20171;-73
2022/05/02 00:37:38;;;;;;;27.57;19.97;;;9.60;1.00;;;;;;5115696;28;20197;-72
2022/05/02 00:40:05;;;;;;;26.97;19.57;;;9.70;1.00;;;;;;5115794;28;20254;-72
2022/05/02 00:42:31;;;;;;;29.00;20.53;;;9.70;1.00;;;;;;5115670;28;20179;-72
2022/05/02 00:44:57;;;;;;;30.90;20.53;;;9.80;1.00;;;;;;5115492;28;20171;-72
2022/05/02 00:47:23;;;;;;;28.43;20.73;;;9.70;1.00;;;;;;5115553;28;20178;-72
2022/05/02 00:49:49;;;;;;;29.27;20.03;;;9.60;1.00;;;;;;5115410;28;20172;-71
2022/05/02 00:52:15;;;;;;;28.03;20.80;;;9.60;1.00;;;;;;5115129;28;20211;-72
2022/05/02 00:54:42;;;;;;;34.50;22.23;;;9.70;1.00;;;;;;5115706;28;20203;-72
2022/05/02 00:57:11;;;;;;;31.27;21.60;;;9.60;1.00;;;;;;5113922;28;20223;-71
2022/05/02 00:59:37;;;;;;;33.73;22.63;;;9.60;1.00;;;;;;5115438;28;20179;-72
2022/05/02 01:02:08;;;;;;;28.10;21.90;;;9.60;1.00;;;;;;5115221;28;20190;-72
2022/05/02 01:04:35;;;;;;;29.43;22.23;;;9.70;1.00;;;;;;5115035;28;20216;-72
2022/05/02 01:07:11;;;;;;;30.00;21.87;;;9.70;1.00;;;;;;5115079;28;20658;-72
2022/05/02 01:09:45;;;;;;;33.37;23.90;;;9.70;1.00;;;;;;5115141;28;20232;-71
2022/05/02 01:12:26;;;;;;;30.37;23.33;;;9.60;1.00;;;;;;5115084;28;20265;-71
2022/05/02 01:14:55;;;;;;;34.13;24.27;;;9.50;1.00;;;;;;5114879;28;20163;-72
2022/05/02 01:17:21;;;;;;;35.47;23.90;;;9.50;1.00;;;;;;5114986;28;20258;-73
2022/05/02 01:19:48;;;;;;;31.80;24.00;;;9.50;1.00;;;;;;5115109;28;20171;-72
2022/05/02 01:22:14;;;;;;;37.07;25.57;;;9.40;1.00;;;;;;5114488;28;20661;-72
2022/05/02 01:24:41;;;;;;;33.87;26.17;;;9.40;1.00;;;;;;5114922;28;20172;-72
2022/05/02 01:27:07;;;;;;;33.07;24.40;;;9.40;1.00;;;;;;5114922;28;20262;-73
2022/05/02 01:29:34;;;;;;;35.00;26.30;;;9.40;1.00;;;;;;5114559;28;20232;-73
2022/05/02 01:32:02;;;;;;;34.40;25.17;;;9.50;1.00;;;;;;5114788;28;20269;-72
2022/05/02 01:34:28;;;;;;;33.50;26.17;;;9.50;1.00;;;;;;5114466;28;20171;-71
2022/05/02 01:36:55;;;;;;;34.50;25.87;;;9.40;1.00;;;;;;5114158;28;20179;-71
2022/05/02 01:39:20;;;;;;;40.40;26.27;;;9.40;1.00;;;;;;5114892;28;20171;-72
2022/05/02 01:41:46;;;;;;;38.70;27.77;;;9.50;1.00;;;;;;5114720;28;20232;-72
2022/05/02 01:44:12;;;;;;;39.40;26.83;;;9.40;1.00;;;;;;5114312;28;20167;-72
2022/05/02 01:46:38;;;;;;;37.40;27.17;;;9.30;1.00;;;;;;5114342;28;20650;-73
2022/05/02 01:49:04;;;;;;;37.33;26.57;;;9.20;1.00;;;;;;5096226;28;20171;-71
2022/05/02 01:51:29;;;;;;;38.23;27.90;;;9.20;2.50;;;;;;5113986;28;20677;-72
2022/05/02 01:53:55;;;;;;;35.70;27.33;;;9.10;7.20;;;;;;5114346;28;20171;-72
2022/05/02 01:56:21;;;;;;;40.70;28.33;;;9.10;6.70;;;;;;5114451;28;20167;-72
2022/05/02 01:58:46;;;;;;;39.63;28.63;;;9.00;10.30;;;;;;5113877;28;20219;-73
2022/05/02 02:01:12;;;;;;;37.13;27.60;;;9.00;10.50;;;;;;5113983;28;20175;-72
2022/05/02 02:03:37;;;;;;;40.20;28.33;;;9.00;11.40;;;;;;5114201;28;20195;-72
2022/05/02 02:06:04;;;;;;;37.53;27.23;;;9.00;14.10;;;;;;5113936;28;20649;-72
2022/05/02 02:08:32;;;;;;;37.97;27.80;;;8.90;15.00;;;;;;5113907;28;20622;-72
2022/05/02 02:11:00;;;;;;;40.30;27.27;;;8.90;16.70;;;;;;5113954;28;20213;-73
2022/05/02 02:13:26;;;;;;;37.30;27.20;;;8.90;19.00;;;;;;5113979;28;20167;-73
2022/05/02 02:15:51;;;;;;;41.07;28.83;;;8.90;16.80;;;;;;5114006;28;20229;-73
2022/05/02 02:18:17;;;;;;;39.50;28.10;;;8.90;16.50;;;;;;5114020;28;20168;-73
2022/05/02 02:20:45;;;;;;;37.50;27.97;;;9.00;17.10;;;;;;5113731;28;20164;-73
2022/05/02 02:23:13;;;;;;;36.07;27.60;;;8.90;15.60;;;;;;5113799;28;20175;-71
2022/05/02 02:25:39;;;;;;;44.63;28.80;;;8.90;16.10;;;;;;5113673;28;20174;-73
2022/05/02 02:28:05;;;;;;;43.97;28.93;;;8.80;16.20;;;;;;5113888;28;20178;-72
2022/05/02 02:30:31;;;;;;;40.33;28.93;;;8.80;18.70;;;;;;5113337;28;20339;-72
2022/05/02 02:32:58;;;;;;;40.67;28.83;;;8.80;19.40;;;;;;5113002;28;20178;-73
2022/05/02 02:35:25;;;;;;;40.73;29.37;;;8.80;19.80;;;;;;5113664;28;20274;-72
2022/05/02 02:37:50;;;;;;;40.67;28.67;;;8.70;21.70;;;;;;5113879;28;20202;-73
2022/05/02 02:40:16;;;;;;;42.00;30.10;;;8.70;23.40;;;;;;5113345;28;20168;-72
2022/05/02 02:42:42;;;;;;;44.20;29.27;;;8.70;22.60;;;;;;5113191;28;20166;-72
2022/05/02 02:45:08;;;;;;;41.40;29.67;;;8.70;24.60;;;;;;5113134;28;20537;-72
2022/05/02 02:47:34;;;;;;;43.33;31.53;;;8.70;26.30;;;;;;5113052;28;20202;-72
2022/05/02 02:50:00;;;;;;;40.20;29.73;;;8.70;25.10;;;;;;5113385;28;20234;-72
2022/05/02 02:52:26;;;;;;;43.70;30.30;;;8.70;24.60;;;;;;5113188;28;20298;-72
2022/05/02 02:54:51;;;;;;;44.73;30.27;;;8.60;25.30;;;;;;5113510;28;20174;-72
2022/05/02 02:57:17;;;;;;;38.67;29.80;;;8.60;24.30;;;;;;5112886;28;20322;-72
2022/05/02 02:59:43;;;;;;;45.57;30.77;;;8.60;24.00;;;;;;5113262;28;20167;-72
2022/05/02 03:02:09;;;;;;;42.77;31.13;;;8.60;26.10;;;;;;5112760;28;20175;-73
2022/05/02 03:07:21;;;;;;;43.03;30.20;;;8.50;31.90;;;;;;5113481;28;20248;-73
2022/05/02 03:09:47;;;;;;;45.47;30.87;;;8.40;34.80;;;;;;5113129;28;20224;-73
2022/05/02 03:12:12;;;;;;;43.23;31.50;;;8.40;37.60;;;;;;5112862;28;20202;-72
2022/05/02 03:14:38;;;;;;;43.13;30.70;;;8.40;35.20;;;;;;5112746;28;20170;-72
2022/05/02 03:17:04;;;;;;;41.93;30.27;;;8.40;37.20;;;;;;5113172;28;20254;-73
2022/05/02 03:19:30;;;;;;;48.70;31.20;;;8.40;39.80;;;;;;5113171;28;20176;-72
2022/05/02 03:21:56;;;;;;;45.53;31.70;;;8.40;42.10;;;;;;5117056;28;20618;-72
2022/05/02 03:24:21;;;;;;;46.43;30.97;;;8.40;41.20;;;;;;5116940;28;20646;-73
2022/05/02 03:26:47;;;;;;;45.90;30.97;;;8.40;40.80;;;;;;5117171;28;20532;-72
2022/05/02 03:29:13;;;;;;;49.47;31.77;;;8.40;40.60;;;;;;5116633;28;20207;-73
2022/05/02 03:31:38;;;;;;;45.67;30.93;;;8.40;38.60;;;;;;5116496;28;20287;-73
2022/05/02 03:34:04;;;;;;;46.80;33.23;;;8.40;40.60;;;;;;5117036;28;20172;-73
2022/05/02 03:36:30;;;;;;;57.47;33.30;;;8.40;38.80;;;;;;5116758;28;20175;-73
2022/05/02 03:38:56;;;;;;;49.97;31.67;;;8.30;41.80;;;;;;5116934;28;20175;-73
2022/05/02 03:41:22;;;;;;;48.47;31.87;;;8.20;45.70;;;;;;5116568;28;20220;-73
2022/05/02 03:43:47;;;;;;;48.43;31.57;;;8.20;50.40;;;;;;5116259;28;20167;-73
2022/05/02 03:46:13;;;;;;;52.43;32.53;;;8.20;52.50;;;;;;5116181;28;20266;-73
2022/05/02 03:48:38;;;;;;;50.73;31.97;;;8.10;52.10;;;;;;5116217;28;20179;-72
2022/05/02 03:51:04;;;;;;;57.47;33.33;;;8.10;53.90;;;;;;5116416;28;20215;-72
2022/05/02 03:53:30;;;;;;;49.43;32.77;;;8.10;56.10;;;;;;5116566;28;20183;-72
2022/05/02 03:55:55;;;;;;;52.07;33.33;;;8.10;56.90;;;;;;5116003;28;20174;-72
2022/05/02 03:58:21;;;;;;;45.83;31.87;;;8.10;59.60;;;;;;5115924;28;20218;-72
2022/05/02 04:00:47;;;;;;;47.63;33.40;;;8.10;59.40;;;;;;5116093;28;20186;-73
2022/05/02 04:03:13;;;;;;;49.90;33.57;;;8.10;58.80;;;;;;5116338;28;20254;-72
2022/05/02 04:05:38;;;;;;;54.73;34.10;;;8.00;57.70;;;;;;5116223;28;20615;-72
2022/05/02 04:08:05;;;;;;;52.73;33.43;;;8.10;59.50;;;;;;5116285;28;20190;-72
2022/05/02 04:10:30;;;;;;;58.70;34.53;;;8.10;60.80;;;;;;5115746;28;20658;-72
2022/05/02 04:12:56;;;;;;;53.93;33.63;;;8.00;61.40;;;;;;5115504;28;20174;-72
2022/05/02 04:15:21;;;;;;;48.57;33.53;;;8.00;60.20;;;;;;5115640;28;20253;-72
2022/05/02 04:17:47;;;;;;;60.20;35.07;;;8.00;60.20;;;;;;5115884;28;20168;-72
2022/05/02 04:20:13;;;;;;;59.53;35.03;;;8.10;61.50;;;;;;5116011;28;20167;-73
2022/05/02 04:22:40;;;;;;;51.90;32.33;;;8.10;60.50;;;;;;5115252;28;20176;-72
2022/05/02 04:25:06;;;;;;;60.07;35.30;;;8.10;58.80;;;;;;5115451;28;20171;-72
2022/05/02 04:27:32;;;;;;;51.87;33.47;;;8.10;59.80;;;;;;5115781;28;20175;-73
2022/05/02 04:29:58;;;;;;;51.23;33.60;;;8.20;60.20;;;;;;5115406;28;20175;-72
2022/05/02 04:32:23;;;;;;;52.50;33.63;;;8.30;59.90;;;;;;5114743;28;20210;-72
2022/05/02 04:34:49;;;;;;;60.07;33.27;;;8.50;59.60;;;;;;5115411;28;20167;-72
2022/05/02 04:37:14;;;;;;;55.87;35.73;;;8.60;54.20;;;;;;5115549;28;20174;-72
2022/05/02 04:39:40;;;;;;;55.70;34.30;;;8.80;46.00;;;;;;5114810;28;20245;-73
2022/05/02 04:42:06;;;;;;;50.63;32.87;;;8.90;44.00;;;;;;5115140;28;20172;-73
2022/05/02 04:44:34;;;;;;;52.70;33.10;;;9.20;32.50;;;;;;5115009;28;20186;-73
2022/05/02 04:47:00;;;;;;;53.27;34.03;;;9.50;27.60;;;;;;5115053;28;20263;-73
2022/05/02 04:49:25;;;;;;;50.07;33.20;;;9.90;18.30;;;;;;5114972;28;20208;-72
2022/05/02 04:51:51;;;;;;;49.13;32.33;;;10.20;1.00;;;;;;5114926;28;20206;-73
2022/05/02 04:54:16;;;;;;;52.97;31.70;;;10.50;1.00;;;;;;5114449;28;20198;-72
2022/05/02 04:56:42;;;;;;;47.43;30.43;;;10.90;1.00;;;;;;5114439;28;20284;-72
2022/05/02 04:59:08;;;;;;;48.60;31.40;;;11.30;1.00;;;;;;5114675;28;20182;-72
2022/05/02 05:01:33;;;;;;;53.77;30.07;;;11.70;1.00;;;;;;5114389;28;20213;-72
2022/05/02 05:03:59;;;;;;;43.60;29.17;;;12.40;1.00;;;;;;5114787;28;20171;-72
2022/05/02 05:06:25;;;;;;;48.87;29.63;;;12.80;1.00;;;;;;5114213;28;20265;-72
2022/05/02 05:08:51;;;;;;;54.43;30.47;;;13.00;99.90;;;;;;5114311;28;20623;-72
2022/05/02 05:11:44;;;;;;;50.53;30.37;;;13.20;92.00;;;;;;5113862;28;20669;-72
2022/05/02 05:17:29;;;;;;;43.30;28.30;;;14.40;99.90;;;;;;5114040;28;20173;-72
2022/05/02 05:20:08;;;;;;;43.63;29.10;;;15.10;11.70;;;;;;5113668;28;20171;-72
2022/05/02 05:22:44;;;;;;;44.20;29.67;;;15.10;1.00;;;;;;5113798;28;20293;-72
2022/05/02 05:25:31;;;;;;;41.77;27.37;;;15.40;1.00;;;;;;5113580;28;20178;-73
2022/05/02 05:28:41;;;;;;;46.40;27.97;;;16.20;1.00;;;;;;5113115;28;20171;-73
2022/05/02 05:31:35;;;;;;;41.57;28.07;;;17.20;25.50;;;;;;5087535;28;20214;-74
2022/05/02 05:34:34;;;;;;;42.80;27.00;;;17.60;1.00;;;;;;5113197;28;20171;-74
2022/05/02 05:37:33;;;;;;;41.50;26.80;;;18.10;1.00;;;;;;5113360;28;20196;-74
2022/05/02 05:40:17;;;;;;;36.80;27.37;;;17.90;1.00;;;;;;5112956;28;20283;-74
2022/05/02 05:42:56;;;;;;;38.17;26.40;;;17.70;1.00;;;;;;5112789;28;20198;-74
2022/05/02 05:45:34;;;;;;;38.80;26.30;;;18.10;1.00;;;;;;5113186;28;20586;-75
2022/05/02 05:48:27;;;;;;;45.33;27.02;;;18.90;99.90;;;;;;5113063;28;20175;-75
2022/05/02 05:51:21;;;;;;;43.55;27.70;;;18.90;99.90;;;;;;5112660;28;20199;-76
2022/05/02 05:54:33;;;;;;;40.80;26.48;;;19.00;99.90;;;;;;5112932;28;20164;-76
2022/05/02 05:57:04;;;;;;;37.60;24.77;;;19.80;99.90;;;;;;5064716;28;20215;-77
2022/05/02 05:59:54;;;;;;;40.25;26.02;;;20.70;99.90;;;;;;5112983;28;20250;-76
2022/05/02 06:02:22;;;;;;;38.42;26.13;;;21.50;99.90;;;;;;5113004;28;20167;-77
2022/05/02 06:04:50;;;;;;;33.65;26.40;;;21.40;99.90;;;;;;5112787;28;20171;-78
2022/05/02 06:07:21;;;;;;;45.05;25.85;;;21.70;99.90;;;;;;5112601;28;20167;-79
2022/05/02 06:09:48;;;;;;;34.03;24.90;;;21.80;99.90;;;;;;5112985;28;20256;-78
2022/05/02 06:12:15;;;;;;;32.75;24.90;;;21.60;99.90;;;;;;5111754;28;20210;-78
2022/05/02 06:20:20;;;;;;;27.08;24.13;;;21.80;99.90;;;;;;5112235;28;20226;-79
2022/05/02 06:22:47;;;;;;;32.63;24.50;;;22.50;99.90;;;;;;5109164;28;20167;-78
2022/05/02 06:25:14;;;;;;;30.40;23.83;;;23.00;99.90;;;;;;5109746;28;20220;-78
2022/05/02 06:27:43;;;;;;;38.28;24.92;;;22.90;99.90;;;;;;5112084;28;20171;-76
2022/05/02 06:30:09;;;;;;;33.15;24.67;;;22.90;99.90;;;;;;5111118;28;20175;-79
2022/05/02 06:32:37;;;;;;;33.80;24.58;;;23.60;99.90;;;;;;5110863;28;20289;-79
2022/05/02 06:35:06;;;;;;;30.45;23.80;;;23.50;99.90;;;;;;5093531;28;20536;-78
2022/05/02 06:37:40;;;;;;;29.90;24.23;;;24.30;99.90;;;;;;5094669;28;20168;-77
2022/05/02 06:40:32;;;;;;;30.02;24.25;;;23.90;99.90;;;;;;5111317;28;20614;-78
2022/05/02 06:43:35;;;;;;;35.70;23.83;;;25.20;99.90;;;;;;5111024;28;20202;-76
2022/05/02 06:46:07;;;;;;;37.08;28.42;;;26.20;99.90;;;;;;5055649;28;20218;-77
2022/05/02 06:48:48;;;;;;;33.17;23.98;;;26.20;99.90;;;;;;5109845;28;20170;-77
2022/05/02 06:51:38;;;;;;;32.42;24.75;;;26.20;99.90;;;;;;5091006;28;20664;-77
2022/05/02 06:54:40;;;;;;;36.88;24.00;;;26.00;99.90;;;;;;5091658;28;20179;-77
2022/05/02 06:57:14;;;;;;;33.72;23.65;;;26.20;98.90;;;;;;5095100;28;20214;-77
2022/05/02 06:59:52;;;;;;;28.75;23.77;;;27.20;96.30;;;;;;5096145;28;20176;-75
2022/05/02 07:02:24;;;;;;;32.67;23.90;;;27.80;90.70;;;;;;5095440;28;20182;-76
2022/05/02 07:04:52;;;;;;;33.88;24.17;;;28.10;98.60;;;;;;5095708;28;20164;-76
2022/05/02 07:07:20;;;;;;;32.45;23.63;;;27.50;78.70;;;;;;5095569;28;20172;-77
2022/05/02 07:09:52;;;;;;;31.20;23.95;;;27.50;82.00;;;;;;5095341;28;20218;-76
2022/05/02 07:12:21;;;;;;;29.60;22.70;;;28.00;94.80;;;;;;5095296;28;20222;-76
2022/05/02 07:15:11;;;;;;;27.05;23.40;;;28.90;91.40;;;;;;5095975;28;20168;-76
2022/05/02 07:17:42;;;;;;;34.28;21.92;;;28.90;60.10;;;;;;5102808;28;20182;-76
2022/05/02 07:20:14;;;;;;;24.65;22.10;;;28.40;57.50;;;;;;5114870;28;20175;-76
2022/05/02 07:22:43;;;;;;;26.77;21.30;;;27.80;58.20;;;;;;5115396;28;20179;-76
2022/05/02 07:25:11;;;;;;;24.98;19.80;;;28.50;55.50;;;;;;5115169;28;20189;-76
2022/05/02 07:27:52;;;;;;;20.52;18.52;;;28.50;48.60;;;;;;5115827;28;20175;-75
2022/05/02 07:30:21;;;;;;;19.48;17.33;;;27.60;50.90;;;;;;5114934;28;20187;-75
2022/05/02 07:32:47;;;;;;;19.67;17.23;;;24.90;56.70;;;;;;5116047;28;20174;-76
2022/05/02 07:35:14;;;;;;;19.42;17.45;;;24.10;60.80;;;;;;5115462;28;20163;-77
2022/05/02 07:37:42;;;;;;;19.15;17.25;;;24.30;64.20;;;;;;5114893;28;20175;-76
2022/05/02 07:40:12;;;;;;;19.98;17.98;;;24.80;65.30;;;;;;5115606;28;20207;-75
2022/05/02 07:42:38;;;;;;;20.63;18.42;;;25.40;63.90;;;;;;5115421;28;20231;-76
2022/05/02 07:45:10;;;;;;;21.23;18.20;;;25.60;61.30;;;;;;5115432;28;20163;-74
2022/05/02 07:47:36;;;;;;;20.08;16.92;;;26.60;58.50;;;;;;5114984;28;20163;-75
2022/05/02 07:50:05;;;;;;;21.35;18.92;;;25.90;54.00;;;;;;5115698;28;20198;-76
2022/05/02 07:52:33;;;;;;;20.48;18.30;;;26.80;57.50;;;;;;5114734;28;20211;-76
2022/05/02 07:55:01;;;;;;;24.33;18.65;;;27.20;54.10;;;;;;5115163;28;20170;-75
2022/05/02 07:57:31;;;;;;;19.40;17.30;;;27.50;50.20;;;;;;5114525;28;20361;-76
2022/05/02 07:59:59;;;;;;;18.33;15.98;;;27.50;48.40;;;;;;5115203;28;20229;-76
2022/05/02 08:02:26;;;;;;;18.45;16.20;;;27.40;48.60;;;;;;5114592;28;20247;-76
2022/05/02 08:04:54;;;;;;;19.27;16.30;;;27.60;43.30;;;;;;5114544;28;20727;-75
2022/05/02 08:07:35;;;;;;;17.67;16.00;;;26.80;43.20;;;;;;5114395;28;20178;-76
2022/05/02 08:10:19;;;;;;;17.75;15.85;;;25.80;47.10;;;;;;5115312;28;20535;-75
2022/05/02 08:12:55;;;;;;;19.42;17.08;;;24.10;51.40;;;;;;5114931;28;20191;-76
2022/05/02 08:15:25;;;;;;;18.60;16.42;;;22.80;59.40;;;;;;5104279;28;20211;-76
2022/05/02 08:18:25;;;;;;;19.30;15.43;;;23.30;60.50;;;;;;5098949;28;20664;-75
2022/05/02 08:21:09;;;;;;;18.23;16.42;;;22.90;61.70;;;;;;5098809;28;20246;-76
2022/05/02 08:27:19;;;;;;;19.80;16.13;;;23.30;66.30;;;;;;5115662;27;20185;-76
2022/05/02 08:30:02;;;;;;;16.38;14.68;;;24.10;61.90;;;;;;5108665;28;20184;-74
2022/05/02 08:33:01;;;;;;;16.42;14.82;;;25.20;55.90;;;;;;5108989;28;20230;-76
2022/05/02 08:35:39;;;;;;;17.02;15.25;;;25.10;50.60;;;;;;5107824;28;20558;-76
2022/05/02 08:38:40;;;;;;;15.55;14.05;;;24.70;56.40;;;;;;5115488;27;20189;-77
2022/05/02 08:41:21;;;;;;;16.30;14.70;;;25.50;52.70;;;;;;5112019;28;20198;-76
2022/05/02 08:44:27;;;;;;;15.05;13.52;;;25.10;52.30;;;;;;5110352;28;20175;-77
2022/05/02 08:46:59;;;;;;;13.85;12.45;;;24.50;55.70;;;;;;5112250;28;20240;-77
2022/05/02 08:49:39;;;;;;;15.80;12.90;;;24.30;52.60;;;;;;5107577;28;20183;-77
2022/05/02 08:52:32;;;;;;;15.63;13.35;;;23.30;53.50;;;;;;5107074;27;20225;-76
2022/05/02 08:55:22;;;;;;;15.80;13.75;;;23.10;59.60;;;;;;5107995;28;20172;-76
2022/05/02 08:57:50;;;;;;;15.05;13.57;;;23.40;60.20;;;;;;5112726;28;20224;-76
2022/05/02 09:00:16;;;;;;;14.55;13.15;;;24.70;57.30;;;;;;5107840;28;20219;-76
2022/05/02 09:03:06;;;;;;;14.48;13.02;;;24.30;54.40;;;;;;5109448;28;20271;-76
2022/05/02 09:06:08;;;;;;;14.48;13.07;;;24.90;52.50;;;;;;5107648;28;20244;-77
2022/05/02 09:09:24;;;;;;;15.00;13.55;;;24.20;54.20;;;;;;5107984;28;20171;-78
2022/05/02 09:12:23;;;;;;;15.70;13.60;;;23.90;54.20;;;;;;5074215;28;20941;-75
2022/05/02 09:14:59;;;;;;;14.07;12.85;;;24.00;55.10;;;;;;5109581;28;20206;-77
2022/05/02 09:17:43;;;;;;;14.90;11.60;;;22.40;61.30;;;;;;5109948;28;20193;-77
2022/05/02 09:20:28;;;;;;;12.50;11.38;;;23.70;55.70;;;;;;5105660;28;20248;-77
2022/05/02 09:23:18;;;;;;;13.07;11.75;;;24.20;53.80;;;;;;5110712;28;20181;-78
2022/05/02 09:26:05;;;;;;;12.60;11.35;;;23.50;58.10;;;;;;5116021;28;20217;-77
2022/05/02 09:28:48;;;;;;;11.75;10.38;;;22.20;59.70;;;;;;5109266;28;20542;-77
2022/05/02 09:31:56;;;;;;;11.20;10.20;;;22.20;63.50;;;;;;5108106;28;20209;-76
2022/05/02 09:34:38;;;;;;;14.52;11.75;;;24.20;59.10;;;;;;5096324;27;20194;-77
2022/05/02 09:37:06;;;;;;;12.48;11.20;;;23.90;51.00;;;;;;5112823;28;20299;-78
2022/05/02 09:39:48;;;;;;;12.60;11.40;;;24.80;49.60;;;;;;5114021;28;20262;-78
2022/05/02 09:42:43;;;;;;;10.82;9.77;;;23.50;49.70;;;;;;5107002;28;20184;-79
2022/05/02 09:51:55;;;;;;;13.75;11.90;;;23.40;55.50;;;;;;5117363;28;20224;-79
2022/05/02 09:57:34;;;;;;;12.85;10.23;;;23.70;52.40;;;;;;5106175;28;20241;-77
2022/05/02 10:02:50;;;;;;;10.52;9.63;;;22.80;51.50;;;;;;5107803;28;20186;-78
2022/05/02 10:05:29;;;;;;;10.68;9.68;;;22.00;53.00;;;;;;5113565;28;20163;-78
2022/05/02 10:08:04;;;;;;;10.80;9.70;;;21.00;58.40;;;;;;5111371;28;20187;-79
2022/05/02 10:10:39;;;;;;;8.80;7.97;;;21.90;58.60;;;;;;5113819;28;20563;-78
2022/05/02 10:13:17;;;;;;;10.00;8.15;;;23.70;55.00;;;;;;5107541;28;20178;-77
2022/05/02 10:15:45;;;;;;;11.73;9.07;;;24.20;47.80;;;;;;5113929;28;20279;-79
2022/05/02 10:18:14;;;;;;;9.25;8.35;;;23.90;47.70;;;;;;5112202;28;20176;-78
2022/05/02 10:21:01;;;;;;;9.45;8.70;;;24.10;45.20;;;;;;5110231;28;20213;-78
2022/05/02 10:23:52;;;;;;;8.63;7.78;;;23.90;46.60;;;;;;5115068;28;20178;-79
2022/05/02 10:26:29;;;;;;;8.65;7.85;;;25.00;42.60;;;;;;5101722;28;20175;-79
2022/05/02 10:29:31;;;;;;;9.48;8.23;;;26.00;38.70;;;;;;5115391;28;20182;-79
2022/05/02 10:32:09;;;;;;;9.73;8.65;;;26.80;33.30;;;;;;5118222;28;20210;-78
2022/05/02 10:34:37;;;;;;;11.90;8.32;;;27.00;30.90;;;;;;5121363;28;20606;-79
2022/05/02 10:37:07;;;;;;;8.98;8.10;;;25.50;31.10;;;;;;5112768;28;20179;-79
2022/05/02 10:39:40;;;;;;;9.32;8.38;;;24.60;30.60;;;;;;5113084;28;20270;-78
2022/05/02 10:42:07;;;;;;;9.68;8.65;;;23.40;34.40;;;;;;5110568;28;20677;-80
2022/05/02 10:44:50;;;;;;;9.70;8.85;;;23.30;39.90;;;;;;5126848;28;20171;-78
2022/05/02 10:47:20;;;;;;;10.25;9.23;;;24.10;39.00;;;;;;5113446;28;20202;-79
2022/05/02 10:50:09;;;;;;;13.35;9.77;;;22.50;42.50;;;;;;5114805;28;20163;-80
2022/05/02 10:52:47;;;;;;;9.98;9.07;;;22.70;45.90;;;;;;5112321;28;20214;-78
2022/05/02 10:55:19;;;;;;;11.15;10.15;;;24.10;44.50;;;;;;5122328;28;20176;-78
2022/05/02 10:57:54;;;;;;;9.98;9.05;;;25.10;41.20;;;;;;5121102;28;20310;-79
2022/05/02 11:00:20;;;;;;;9.90;9.05;;;25.20;36.60;;;;;;5099262;28;20266;-81
2022/05/02 11:03:24;;;;;;;9.65;8.77;;;25.80;32.10;;;;;;5116068;28;20182;-79
2022/05/02 11:06:08;;;;;;;9.63;8.73;;;24.60;37.20;;;;;;5075931;28;20590;-80
2022/05/02 11:08:53;;;;;;;10.80;9.20;;;24.40;35.90;;;;;;5106880;28;20232;-80
2022/05/02 11:11:36;;;;;;;13.50;9.52;;;24.20;37.50;;;;;;5114442;28;20202;-79
2022/05/02 11:14:20;;;;;;;9.02;8.10;;;25.20;36.50;;;;;;5111418;28;20187;-78
2022/05/02 11:17:07;;;;;;;10.90;9.00;;;24.10;32.40;;;;;;5110414;28;20176;-78
2022/05/02 11:22:39;;;;;;;9.70;8.70;;;22.20;42.40;;;;;;5111748;28;20241;-78
2022/05/02 11:25:19;;;;;;;10.30;9.40;;;22.30;44.60;;;;;;5111431;28;20232;-78
2022/05/02 11:28:04;;;;;;;10.07;9.20;;;21.90;47.90;;;;;;5112718;28;20197;-76
2022/05/02 11:30:45;;;;;;;8.73;7.93;;;22.30;46.30;;;;;;5111873;28;20607;-77
2022/05/02 11:33:16;;;;;;;9.55;8.75;;;22.60;44.70;;;;;;5112111;28;20232;-78
2022/05/02 11:35:48;;;;;;;9.07;8.27;;;21.90;44.80;;;;;;5111358;28;20634;-77
2022/05/02 11:38:38;;;;;;;9.45;8.48;;;21.90;48.70;;;;;;5112164;28;20244;-78
2022/05/02 11:41:22;;;;;;;8.98;7.43;;;22.40;44.50;;;;;;5112854;28;20594;-74
2022/05/02 11:43:49;;;;;;;10.85;7.22;;;23.30;45.30;;;;;;5109804;28;20179;-74
2022/05/02 11:46:16;;;;;;;9.68;8.63;;;24.20;43.10;;;;;;5111728;28;20179;-77
2022/05/02 11:48:56;;;;;;;8.82;7.97;;;24.70;36.40;;;;;;5114618;28;20213;-76
2022/05/02 11:51:48;;;;;;;10.35;8.82;;;24.70;34.50;;;;;;5112937;28;20220;-75
2022/05/02 11:54:37;;;;;;;11.13;8.48;;;23.50;38.80;;;;;;5100907;28;20168;-76
2022/05/02 11:57:14;;;;;;;8.48;7.78;;;21.40;45.50;;;;;;5113753;28;20207;-76
2022/05/02 11:59:48;;;;;;;11.32;8.15;;;21.20;45.70;;;;;;5113138;28;20569;-78
2022/05/02 12:02:48;;;;;;;10.32;9.32;;;20.50;48.30;;;;;;5093474;28;20175;-78
2022/05/02 12:05:32;;;;;;;10.73;9.18;;;19.50;52.70;;;;;;5112750;28;20175;-77
2022/05/02 12:08:08;;;;;;;10.38;8.88;;;19.50;86.70;;;;;;5107591;28;20175;-77
2022/05/02 12:10:41;;;;;;;9.57;8.68;;;19.60;64.20;;;;;;5102476;28;20569;-76
2022/05/02 12:13:15;;;;;;;9.55;8.32;;;20.20;59.80;;;;;;5110381;28;20258;-74
2022/05/02 12:15:57;;;;;;;9.82;8.82;;;20.30;63.40;;;;;;5112111;28;20176;-76
2022/05/02 12:18:23;;;;;;;11.35;9.27;;;20.80;69.70;;;;;;5112933;28;20180;-75
2022/05/02 12:20:58;;;;;;;10.60;8.32;;;20.70;90.40;;;;;;5111844;28;20205;-76
2022/05/02 12:23:33;;;;;;;9.70;8.70;;;20.70;65.80;;;;;;5112271;28;20348;-75
2022/05/02 12:25:59;;;;;;;11.93;8.10;;;21.00;63.20;;;;;;5108884;28;20656;-77
2022/05/02 12:28:43;;;;;;;12.82;8.80;;;20.90;62.20;;;;;;5109070;28;20670;-76
2022/05/02 12:31:14;;;;;;;9.65;8.52;;;21.00;65.90;;;;;;5114465;28;20302;-76
2022/05/02 12:33:43;;;;;;;9.52;8.57;;;21.00;91.60;;;;;;5092834;28;20530;-77
2022/05/02 12:36:17;;;;;;;9.60;7.65;;;20.80;68.30;;;;;;5112054;28;20180;-77
2022/05/02 12:39:04;;;;;;;10.48;7.93;;;20.80;61.70;;;;;;5108012;28;20178;-78
2022/05/02 12:41:38;;;;;;;8.77;7.82;;;20.40;68.70;;;;;;5112786;28;20171;-76
2022/05/02 12:44:08;;;;;;;8.77;7.88;;;20.80;68.40;;;;;;5110061;28;20672;-76
2022/05/02 12:46:39;;;;;;;8.30;7.55;;;20.80;68.80;;;;;;5112196;28;20182;-76
2022/05/02 12:49:06;;;;;;;8.93;7.60;;;20.50;65.10;;;;;;5112514;28;20190;-76
2022/05/02 12:51:33;;;;;;;10.80;8.20;;;19.80;69.00;;;;;;5112080;28;20256;-77
2022/05/02 12:54:12;;;;;;;9.30;8.25;;;20.00;66.60;;;;;;5109566;28;20177;-77
2022/05/02 13:02:35;;;;;;;9.77;8.57;;;19.70;80.10;;;;;;5111983;28;20194;-75
2022/05/02 13:05:06;;;;;;;8.50;7.35;;;19.30;82.20;;;;;;5105679;28;20174;-74
2022/05/02 13:07:42;;;;;;;9.00;8.10;;;19.10;81.40;;;;;;5113370;28;20175;-76
2022/05/02 13:10:29;;;;;;;8.65;7.75;;;19.60;83.90;;;;;;5110211;28;20257;-76
2022/05/02 13:13:02;;;;;;;10.38;7.40;;;19.80;92.80;;;;;;5105664;28;20533;-75
2022/05/02 13:15:49;;;;;;;9.48;7.88;;;20.20;82.50;;;;;;5113306;28;20171;-74
2022/05/02 13:18:20;;;;;;;10.98;9.25;;;20.50;77.00;;;;;;5109854;28;20187;-77
2022/05/02 13:21:11;;;;;;;9.80;8.85;;;20.30;76.50;;;;;;5112717;28;20183;-77
2022/05/02 13:23:43;;;;;;;9.80;8.88;;;20.30;84.00;;;;;;5111843;28;20212;-76
2022/05/02 13:26:12;;;;;;;11.02;9.70;;;20.50;78.30;;;;;;5098235;28;20171;-75
2022/05/02 13:28:37;;;;;;;10.93;9.30;;;20.80;78.00;;;;;;5109252;28;20650;-78
2022/05/02 13:31:32;;;;;;;10.18;9.18;;;21.10;75.10;;;;;;5108042;28;20248;-75
2022/05/02 13:34:02;;;;;;;12.32;8.88;;;20.60;71.80;;;;;;5072978;28;20198;-74
2022/05/02 13:36:39;;;;;;;8.57;7.72;;;20.60;76.90;;;;;;5112816;28;20211;-75
2022/05/02 13:39:32;;;;;;;12.00;9.40;;;20.80;76.60;;;;;;5112173;28;20171;-74
2022/05/02 13:42:07;;;;;;;11.05;9.30;;;21.20;77.30;;;;;;5108125;28;20175;-75
2022/05/02 13:44:56;;;;;;;10.10;8.73;;;21.20;73.10;;;;;;5107738;28;20178;-74